sensor_id;sensor_type;location;lat;lon;timestamp;temperature;humidity
65291;SHT30;51893;59.754;10.110;2023-06-22T00:01:27;16.23;85.42
65291;SHT30;51893;59.754;10.110;2023-06-22T00:03:56;16.18;85.38
65291;SHT30;51893;59.754;10.110;2023-06-22T00:06:25;16.15;85.27
65291;SHT30;51893;59.754;10.110;2023-06-22T00:08:53;16.13;85.08
65291;SHT30;51893;59.754;10.110;2023-06-22T00:11:20;16.11;84.90
65291;SHT30;51893;59.754;10.110;2023-06-22T00:13:48;16.00;85.14
65291;SHT30;51893;59.754;10.110;2023-06-22T00:16:17;15.92;85.48
65291;SHT30;51893;59.754;10.110;2023-06-22T00:18:45;15.91;85.78
65291;SHT30;51893;59.754;10.110;2023-06-22T00:21:15;15.87;85.87
65291;SHT30;51893;59.754;10.110;2023-06-22T00:23:43;15.86;85.91
65291;SHT30;51893;59.754;10.110;2023-06-22T00:26:11;15.81;85.93
65291;SHT30;51893;59.754;10.110;2023-06-22T00:28:39;15.80;86.02
65291;SHT30;51893;59.754;10.110;2023-06-22T00:31:07;15.83;86.32
65291;SHT30;51893;59.754;10.110;2023-06-22T00:33:35;15.82;86.12
65291;SHT30;51893;59.754;10.110;2023-06-22T00:36:04;15.82;85.95
65291;SHT30;51893;59.754;10.110;2023-06-22T00:38:35;15.87;86.03
65291;SHT30;51893;59.754;10.110;2023-06-22T00:41:07;15.97;86.04
65291;SHT30;51893;59.754;10.110;2023-06-22T00:43:35;16.07;85.74
65291;SHT30;51893;59.754;10.110;2023-06-22T00:46:03;16.12;85.34
65291;SHT30;51893;59.754;10.110;2023-06-22T00:48:31;16.13;85.06
65291;SHT30;51893;59.754;10.110;2023-06-22T00:51:00;16.15;84.92
65291;SHT30;51893;59.754;10.110;2023-06-22T00:53:28;16.18;84.63
65291;SHT30;51893;59.754;10.110;2023-06-22T00:55:58;16.20;84.41
65291;SHT30;51893;59.754;10.110;2023-06-22T00:58:30;16.22;84.18
65291;SHT30;51893;59.754;10.110;2023-06-22T01:00:58;16.24;84.00
65291;SHT30;51893;59.754;10.110;2023-06-22T01:03:28;16.24;83.77
65291;SHT30;51893;59.754;10.110;2023-06-22T01:05:59;16.24;83.49
65291;SHT30;51893;59.754;10.110;2023-06-22T01:08:42;16.26;83.27
65291;SHT30;51893;59.754;10.110;2023-06-22T01:11:26;16.23;83.26
65291;SHT30;51893;59.754;10.110;2023-06-22T01:14:10;16.24;83.08
65291;SHT30;51893;59.754;10.110;2023-06-22T01:16:42;16.28;82.93
65291;SHT30;51893;59.754;10.110;2023-06-22T01:21:59;16.27;82.79
65291;SHT30;51893;59.754;10.110;2023-06-22T01:29:55;16.12;82.98
65291;SHT30;51893;59.754;10.110;2023-06-22T01:32:33;16.10;83.04
65291;SHT30;51893;59.754;10.110;2023-06-22T01:35:06;16.07;83.00
65291;SHT30;51893;59.754;10.110;2023-06-22T01:37:36;16.04;83.00
65291;SHT30;51893;59.754;10.110;2023-06-22T01:40:06;16.02;83.01
65291;SHT30;51893;59.754;10.110;2023-06-22T01:42:36;16.03;82.90
65291;SHT30;51893;59.754;10.110;2023-06-22T01:45:05;16.02;82.86
65291;SHT30;51893;59.754;10.110;2023-06-22T01:47:35;16.02;82.68
65291;SHT30;51893;59.754;10.110;2023-06-22T01:50:04;16.00;82.54
65291;SHT30;51893;59.754;10.110;2023-06-22T01:52:32;15.97;82.40
65291;SHT30;51893;59.754;10.110;2023-06-22T01:55:02;15.94;82.31
65291;SHT30;51893;59.754;10.110;2023-06-22T01:57:32;15.89;82.12
65291;SHT30;51893;59.754;10.110;2023-06-22T02:00:02;15.85;82.10
65291;SHT30;51893;59.754;10.110;2023-06-22T02:02:33;15.82;82.02
65291;SHT30;51893;59.754;10.110;2023-06-22T02:05:07;15.80;81.90
65291;SHT30;51893;59.754;10.110;2023-06-22T02:08:23;15.77;81.84
65291;SHT30;51893;59.754;10.110;2023-06-22T02:10:37;15.72;81.82
65291;SHT30;51893;59.754;10.110;2023-06-22T02:13:08;15.72;81.78
65291;SHT30;51893;59.754;10.110;2023-06-22T02:15:37;15.69;81.80
65291;SHT30;51893;59.754;10.110;2023-06-22T02:18:06;15.66;81.78
65291;SHT30;51893;59.754;10.110;2023-06-22T02:20:38;15.66;81.80
65291;SHT30;51893;59.754;10.110;2023-06-22T02:23:08;15.65;81.78
65291;SHT30;51893;59.754;10.110;2023-06-22T02:25:36;15.65;81.80
65291;SHT30;51893;59.754;10.110;2023-06-22T02:28:04;15.60;81.80
65291;SHT30;51893;59.754;10.110;2023-06-22T02:30:32;15.57;81.86
65291;SHT30;51893;59.754;10.110;2023-06-22T02:33:00;15.58;81.90
65291;SHT30;51893;59.754;10.110;2023-06-22T02:35:28;15.57;81.97
65291;SHT30;51893;59.754;10.110;2023-06-22T02:38:03;15.54;81.91
65291;SHT30;51893;59.754;10.110;2023-06-22T02:40:33;15.50;82.03
65291;SHT30;51893;59.754;10.110;2023-06-22T02:43:00;15.46;82.02
65291;SHT30;51893;59.754;10.110;2023-06-22T02:45:31;15.43;82.00
65291;SHT30;51893;59.754;10.110;2023-06-22T02:47:59;15.40;82.04
65291;SHT30;51893;59.754;10.110;2023-06-22T02:50:28;15.40;82.14
65291;SHT30;51893;59.754;10.110;2023-06-22T02:52:56;15.42;82.28
65291;SHT30;51893;59.754;10.110;2023-06-22T02:55:25;15.45;82.16
65291;SHT30;51893;59.754;10.110;2023-06-22T02:57:56;15.47;82.01
65291;SHT30;51893;59.754;10.110;2023-06-22T03:00:25;15.44;81.84
65291;SHT30;51893;59.754;10.110;2023-06-22T03:02:59;15.44;81.85
65291;SHT30;51893;59.754;10.110;2023-06-22T03:05:29;15.40;81.97
65291;SHT30;51893;59.754;10.110;2023-06-22T03:07:57;15.36;81.99
65291;SHT30;51893;59.754;10.110;2023-06-22T03:10:25;15.34;82.08
65291;SHT30;51893;59.754;10.110;2023-06-22T03:12:54;15.34;82.13
65291;SHT30;51893;59.754;10.110;2023-06-22T03:15:22;15.36;82.03
65291;SHT30;51893;59.754;10.110;2023-06-22T03:17:50;15.39;81.89
65291;SHT30;51893;59.754;10.110;2023-06-22T03:20:19;15.39;81.81
65291;SHT30;51893;59.754;10.110;2023-06-22T03:22:47;15.38;81.98
65291;SHT30;51893;59.754;10.110;2023-06-22T03:25:16;15.34;82.11
65291;SHT30;51893;59.754;10.110;2023-06-22T03:27:44;15.33;82.29
65291;SHT30;51893;59.754;10.110;2023-06-22T03:30:12;15.27;82.41
65291;SHT30;51893;59.754;10.110;2023-06-22T03:32:40;15.26;82.46
65291;SHT30;51893;59.754;10.110;2023-06-22T03:35:08;15.32;81.69
65291;SHT30;51893;59.754;10.110;2023-06-22T03:37:40;15.43;81.05
65291;SHT30;51893;59.754;10.110;2023-06-22T03:40:08;15.57;80.38
65291;SHT30;51893;59.754;10.110;2023-06-22T03:42:36;15.66;80.44
65291;SHT30;51893;59.754;10.110;2023-06-22T03:45:05;15.70;80.78
65291;SHT30;51893;59.754;10.110;2023-06-22T03:47:33;15.74;80.75
65291;SHT30;51893;59.754;10.110;2023-06-22T03:50:02;15.74;80.76
65291;SHT30;51893;59.754;10.110;2023-06-22T03:52:31;15.77;80.38
65291;SHT30;51893;59.754;10.110;2023-06-22T03:54:59;15.82;80.12
65291;SHT30;51893;59.754;10.110;2023-06-22T03:57:27;15.90;80.10
65291;SHT30;51893;59.754;10.110;2023-06-22T03:59:56;15.95;80.03
65291;SHT30;51893;59.754;10.110;2023-06-22T04:02:25;16.03;79.84
65291;SHT30;51893;59.754;10.110;2023-06-22T04:04:54;16.10;80.01
65291;SHT30;51893;59.754;10.110;2023-06-22T04:07:22;16.17;79.61
65291;SHT30;51893;59.754;10.110;2023-06-22T04:09:50;16.26;79.51
65291;SHT30;51893;59.754;10.110;2023-06-22T04:12:18;16.33;79.42
65291;SHT30;51893;59.754;10.110;2023-06-22T04:14:46;16.30;80.07
65291;SHT30;51893;59.754;10.110;2023-06-22T04:17:14;16.25;80.62
65291;SHT30;51893;59.754;10.110;2023-06-22T04:19:43;16.26;80.75
65291;SHT30;51893;59.754;10.110;2023-06-22T04:22:11;16.29;80.74
65291;SHT30;51893;59.754;10.110;2023-06-22T04:24:40;16.34;80.82
65291;SHT30;51893;59.754;10.110;2023-06-22T04:27:08;16.38;80.86
65291;SHT30;51893;59.754;10.110;2023-06-22T04:29:37;16.41;80.65
65291;SHT30;51893;59.754;10.110;2023-06-22T04:32:05;16.47;80.45
65291;SHT30;51893;59.754;10.110;2023-06-22T04:34:34;16.51;80.30
65291;SHT30;51893;59.754;10.110;2023-06-22T04:37:02;16.55;79.87
65291;SHT30;51893;59.754;10.110;2023-06-22T04:39:31;16.57;79.69
65291;SHT30;51893;59.754;10.110;2023-06-22T04:41:59;16.61;79.41
65291;SHT30;51893;59.754;10.110;2023-06-22T04:44:30;16.68;79.29
65291;SHT30;51893;59.754;10.110;2023-06-22T04:46:58;16.73;78.35
65291;SHT30;51893;59.754;10.110;2023-06-22T04:49:28;16.82;77.99
65291;SHT30;51893;59.754;10.110;2023-06-22T04:52:03;16.90;77.72
65291;SHT30;51893;59.754;10.110;2023-06-22T04:54:32;16.98;77.21
65291;SHT30;51893;59.754;10.110;2023-06-22T04:57:05;17.04;76.73
65291;SHT30;51893;59.754;10.110;2023-06-22T04:59:38;17.09;76.80
65291;SHT30;51893;59.754;10.110;2023-06-22T05:02:06;17.13;76.70
65291;SHT30;51893;59.754;10.110;2023-06-22T05:04:35;17.14;76.54
65291;SHT30;51893;59.754;10.110;2023-06-22T05:07:06;17.17;76.38
65291;SHT30;51893;59.754;10.110;2023-06-22T05:09:35;17.21;76.35
65291;SHT30;51893;59.754;10.110;2023-06-22T05:12:02;17.28;76.44
65291;SHT30;51893;59.754;10.110;2023-06-22T05:14:35;17.35;76.45
65291;SHT30;51893;59.754;10.110;2023-06-22T05:17:03;17.43;76.61
65291;SHT30;51893;59.754;10.110;2023-06-22T05:19:32;17.51;76.18
65291;SHT30;51893;59.754;10.110;2023-06-22T05:22:02;17.56;76.00
65291;SHT30;51893;59.754;10.110;2023-06-22T05:24:30;17.62;76.06
65291;SHT30;51893;59.754;10.110;2023-06-22T05:26:59;17.65;75.68
65291;SHT30;51893;59.754;10.110;2023-06-22T05:29:27;17.70;75.24
65291;SHT30;51893;59.754;10.110;2023-06-22T05:31:54;17.77;75.33
65291;SHT30;51893;59.754;10.110;2023-06-22T05:34:22;17.83;74.97
65291;SHT30;51893;59.754;10.110;2023-06-22T05:36:50;17.91;74.69
65291;SHT30;51893;59.754;10.110;2023-06-22T05:39:18;17.97;74.05
65291;SHT30;51893;59.754;10.110;2023-06-22T05:41:46;18.07;73.67
65291;SHT30;51893;59.754;10.110;2023-06-22T05:44:14;18.17;73.55
65291;SHT30;51893;59.754;10.110;2023-06-22T05:46:42;18.27;72.96
65291;SHT30;51893;59.754;10.110;2023-06-22T05:49:12;18.37;72.25
65291;SHT30;51893;59.754;10.110;2023-06-22T05:51:41;18.45;71.44
65291;SHT30;51893;59.754;10.110;2023-06-22T05:54:09;18.56;71.31
65291;SHT30;51893;59.754;10.110;2023-06-22T05:56:37;18.66;70.80
65291;SHT30;51893;59.754;10.110;2023-06-22T05:59:05;18.73;70.34
65291;SHT30;51893;59.754;10.110;2023-06-22T06:01:33;18.78;69.83
65291;SHT30;51893;59.754;10.110;2023-06-22T06:04:04;18.84;69.74
65291;SHT30;51893;59.754;10.110;2023-06-22T06:06:36;18.90;69.58
65291;SHT30;51893;59.754;10.110;2023-06-22T06:09:05;18.96;69.44
65291;SHT30;51893;59.754;10.110;2023-06-22T06:11:35;19.02;68.95
65291;SHT30;51893;59.754;10.110;2023-06-22T06:14:03;19.09;68.46
65291;SHT30;51893;59.754;10.110;2023-06-22T06:16:37;19.15;67.84
65291;SHT30;51893;59.754;10.110;2023-06-22T06:19:05;19.18;67.97
65291;SHT30;51893;59.754;10.110;2023-06-22T06:21:33;19.26;67.82
65291;SHT30;51893;59.754;10.110;2023-06-22T06:24:04;19.31;68.18
65291;SHT30;51893;59.754;10.110;2023-06-22T06:26:32;19.40;68.02
65291;SHT30;51893;59.754;10.110;2023-06-22T06:29:00;19.46;67.55
65291;SHT30;51893;59.754;10.110;2023-06-22T06:31:29;19.53;67.12
65291;SHT30;51893;59.754;10.110;2023-06-22T06:33:58;19.59;66.33
65291;SHT30;51893;59.754;10.110;2023-06-22T06:36:25;19.63;65.81
65291;SHT30;51893;59.754;10.110;2023-06-22T06:38:53;19.67;65.58
65291;SHT30;51893;59.754;10.110;2023-06-22T06:41:21;19.72;65.62
65291;SHT30;51893;59.754;10.110;2023-06-22T06:43:49;19.79;65.88
65291;SHT30;51893;59.754;10.110;2023-06-22T06:46:17;19.85;65.59
65291;SHT30;51893;59.754;10.110;2023-06-22T06:48:47;19.92;65.54
65291;SHT30;51893;59.754;10.110;2023-06-22T06:51:15;19.96;65.11
65291;SHT30;51893;59.754;10.110;2023-06-22T06:53:44;20.01;65.14
65291;SHT30;51893;59.754;10.110;2023-06-22T06:56:12;20.08;64.74
65291;SHT30;51893;59.754;10.110;2023-06-22T06:58:41;20.13;63.80
65291;SHT30;51893;59.754;10.110;2023-06-22T07:01:13;20.19;64.44
65291;SHT30;51893;59.754;10.110;2023-06-22T07:03:41;20.24;64.08
65291;SHT30;51893;59.754;10.110;2023-06-22T07:06:09;20.29;63.97
65291;SHT30;51893;59.754;10.110;2023-06-22T07:08:37;20.35;63.60
65291;SHT30;51893;59.754;10.110;2023-06-22T07:11:07;20.40;63.69
65291;SHT30;51893;59.754;10.110;2023-06-22T07:13:36;20.49;63.94
65291;SHT30;51893;59.754;10.110;2023-06-22T07:16:04;20.57;63.45
65291;SHT30;51893;59.754;10.110;2023-06-22T07:18:32;20.65;63.69
65291;SHT30;51893;59.754;10.110;2023-06-22T07:20:59;20.74;63.39
65291;SHT30;51893;59.754;10.110;2023-06-22T07:23:28;20.78;60.95
65291;SHT30;51893;59.754;10.110;2023-06-22T07:25:56;20.84;61.88
65291;SHT30;51893;59.754;10.110;2023-06-22T07:28:24;20.93;61.51
65291;SHT30;51893;59.754;10.110;2023-06-22T07:30:53;21.04;60.36
65291;SHT30;51893;59.754;10.110;2023-06-22T07:33:21;21.12;60.09
65291;SHT30;51893;59.754;10.110;2023-06-22T07:35:49;21.14;57.70
65291;SHT30;51893;59.754;10.110;2023-06-22T07:38:20;21.16;58.32
65291;SHT30;51893;59.754;10.110;2023-06-22T07:40:49;21.19;57.99
65291;SHT30;51893;59.754;10.110;2023-06-22T07:43:18;21.19;56.50
65291;SHT30;51893;59.754;10.110;2023-06-22T07:45:49;21.24;58.10
65291;SHT30;51893;59.754;10.110;2023-06-22T07:48:22;21.31;58.32
65291;SHT30;51893;59.754;10.110;2023-06-22T07:50:50;21.37;58.14
65291;SHT30;51893;59.754;10.110;2023-06-22T07:53:18;21.40;57.11
65291;SHT30;51893;59.754;10.110;2023-06-22T07:55:46;21.43;55.80
65291;SHT30;51893;59.754;10.110;2023-06-22T07:58:16;21.46;55.43
65291;SHT30;51893;59.754;10.110;2023-06-22T08:00:46;21.50;55.45
65291;SHT30;51893;59.754;10.110;2023-06-22T08:03:17;21.55;56.32
65291;SHT30;51893;59.754;10.110;2023-06-22T08:05:45;21.59;55.36
65291;SHT30;51893;59.754;10.110;2023-06-22T08:08:13;21.60;55.20
65291;SHT30;51893;59.754;10.110;2023-06-22T08:10:42;21.64;55.63
65291;SHT30;51893;59.754;10.110;2023-06-22T08:13:11;21.72;56.05
65291;SHT30;51893;59.754;10.110;2023-06-22T08:15:39;21.83;56.19
65291;SHT30;51893;59.754;10.110;2023-06-22T08:18:08;21.90;56.13
65291;SHT30;51893;59.754;10.110;2023-06-22T08:20:36;21.96;55.83
65291;SHT30;51893;59.754;10.110;2023-06-22T08:23:04;22.01;55.62
65291;SHT30;51893;59.754;10.110;2023-06-22T08:25:34;22.02;55.24
65291;SHT30;51893;59.754;10.110;2023-06-22T08:28:04;22.03;54.84
65291;SHT30;51893;59.754;10.110;2023-06-22T08:30:33;22.09;55.78
65291;SHT30;51893;59.754;10.110;2023-06-22T08:33:01;22.19;56.11
65291;SHT30;51893;59.754;10.110;2023-06-22T08:35:29;22.22;54.29
65291;SHT30;51893;59.754;10.110;2023-06-22T08:37:58;22.29;54.83
65291;SHT30;51893;59.754;10.110;2023-06-22T08:40:27;22.32;54.93
65291;SHT30;51893;59.754;10.110;2023-06-22T08:42:58;22.36;55.36
65291;SHT30;51893;59.754;10.110;2023-06-22T08:45:26;22.47;55.19
65291;SHT30;51893;59.754;10.110;2023-06-22T08:47:57;22.48;53.38
65291;SHT30;51893;59.754;10.110;2023-06-22T08:50:25;22.47;53.81
65291;SHT30;51893;59.754;10.110;2023-06-22T08:52:53;22.53;54.15
65291;SHT30;51893;59.754;10.110;2023-06-22T08:55:25;22.64;53.70
65291;SHT30;51893;59.754;10.110;2023-06-22T08:57:53;22.66;52.71
65291;SHT30;51893;59.754;10.110;2023-06-22T09:00:22;22.69;52.15
65291;SHT30;51893;59.754;10.110;2023-06-22T09:02:50;22.78;53.09
65291;SHT30;51893;59.754;10.110;2023-06-22T09:05:18;22.87;52.73
65291;SHT30;51893;59.754;10.110;2023-06-22T09:07:46;23.02;53.60
65291;SHT30;51893;59.754;10.110;2023-06-22T09:10:14;23.16;53.08
65291;SHT30;51893;59.754;10.110;2023-06-22T09:12:42;23.30;52.53
65291;SHT30;51893;59.754;10.110;2023-06-22T09:15:10;23.41;52.25
65291;SHT30;51893;59.754;10.110;2023-06-22T09:17:44;23.44;52.39
65291;SHT30;51893;59.754;10.110;2023-06-22T09:20:14;23.38;51.37
65291;SHT30;51893;59.754;10.110;2023-06-22T09:22:44;23.23;50.64
65291;SHT30;51893;59.754;10.110;2023-06-22T09:25:12;23.13;51.24
65291;SHT30;51893;59.754;10.110;2023-06-22T09:27:40;23.10;52.34
65291;SHT30;51893;59.754;10.110;2023-06-22T09:30:08;23.07;52.66
65291;SHT30;51893;59.754;10.110;2023-06-22T09:32:36;22.98;52.22
65291;SHT30;51893;59.754;10.110;2023-06-22T09:35:04;22.89;51.99
65291;SHT30;51893;59.754;10.110;2023-06-22T09:37:34;22.86;52.28
65291;SHT30;51893;59.754;10.110;2023-06-22T09:40:03;22.82;52.58
65291;SHT30;51893;59.754;10.110;2023-06-22T09:42:37;22.78;52.47
65291;SHT30;51893;59.754;10.110;2023-06-22T09:45:06;22.77;52.89
65291;SHT30;51893;59.754;10.110;2023-06-22T09:47:36;22.79;52.57
65291;SHT30;51893;59.754;10.110;2023-06-22T09:50:04;22.76;52.25
65291;SHT30;51893;59.754;10.110;2023-06-22T09:52:33;22.79;53.35
65291;SHT30;51893;59.754;10.110;2023-06-22T09:55:15;22.80;52.79
65291;SHT30;51893;59.754;10.110;2023-06-22T09:57:45;22.93;53.17
65291;SHT30;51893;59.754;10.110;2023-06-22T10:00:13;23.16;53.21
65291;SHT30;51893;59.754;10.110;2023-06-22T10:02:43;23.41;52.31
65291;SHT30;51893;59.754;10.110;2023-06-22T10:05:12;23.55;51.68
65291;SHT30;51893;59.754;10.110;2023-06-22T10:07:40;23.68;51.69
65291;SHT30;51893;59.754;10.110;2023-06-22T10:10:11;23.83;51.63
65291;SHT30;51893;59.754;10.110;2023-06-22T10:12:41;24.03;51.50
65291;SHT30;51893;59.754;10.110;2023-06-22T10:15:11;24.17;51.78
65291;SHT30;51893;59.754;10.110;2023-06-22T10:17:40;24.24;50.22
65291;SHT30;51893;59.754;10.110;2023-06-22T10:20:08;24.02;47.90
65291;SHT30;51893;59.754;10.110;2023-06-22T10:22:40;23.97;49.04
65291;SHT30;51893;59.754;10.110;2023-06-22T10:25:12;24.05;48.67
65291;SHT30;51893;59.754;10.110;2023-06-22T10:27:40;24.01;47.48
65291;SHT30;51893;59.754;10.110;2023-06-22T10:30:09;23.99;46.87
65291;SHT30;51893;59.754;10.110;2023-06-22T10:32:41;24.06;47.72
65291;SHT30;51893;59.754;10.110;2023-06-22T10:35:10;24.19;47.86
65291;SHT30;51893;59.754;10.110;2023-06-22T10:37:44;24.34;47.12
65291;SHT30;51893;59.754;10.110;2023-06-22T10:40:17;24.35;46.10
65291;SHT30;51893;59.754;10.110;2023-06-22T10:42:46;24.43;47.01
65291;SHT30;51893;59.754;10.110;2023-06-22T10:45:14;24.55;45.73
65291;SHT30;51893;59.754;10.110;2023-06-22T10:47:45;24.58;44.71
65291;SHT30;51893;59.754;10.110;2023-06-22T10:50:13;24.61;44.15
65291;SHT30;51893;59.754;10.110;2023-06-22T10:52:43;24.64;43.63
65291;SHT30;51893;59.754;10.110;2023-06-22T10:55:11;24.76;44.06
65291;SHT30;51893;59.754;10.110;2023-06-22T10:57:39;24.86;43.33
65291;SHT30;51893;59.754;10.110;2023-06-22T11:00:11;24.87;43.00
65291;SHT30;51893;59.754;10.110;2023-06-22T11:02:40;24.94;42.80
65291;SHT30;51893;59.754;10.110;2023-06-22T11:05:09;24.95;42.31
65291;SHT30;51893;59.754;10.110;2023-06-22T11:07:43;24.97;41.88
65291;SHT30;51893;59.754;10.110;2023-06-22T11:10:13;24.98;41.64
65291;SHT30;51893;59.754;10.110;2023-06-22T11:12:41;24.83;41.62
65291;SHT30;51893;59.754;10.110;2023-06-22T11:15:10;24.81;41.94
65291;SHT30;51893;59.754;10.110;2023-06-22T11:17:38;24.80;41.61
65291;SHT30;51893;59.754;10.110;2023-06-22T11:20:06;24.74;40.93
65291;SHT30;51893;59.754;10.110;2023-06-22T11:22:41;24.79;41.04
65291;SHT30;51893;59.754;10.110;2023-06-22T11:25:10;24.88;41.81
65291;SHT30;51893;59.754;10.110;2023-06-22T11:27:39;25.05;41.63
65291;SHT30;51893;59.754;10.110;2023-06-22T11:30:08;25.07;40.29
65291;SHT30;51893;59.754;10.110;2023-06-22T11:32:36;25.09;40.19
65291;SHT30;51893;59.754;10.110;2023-06-22T11:35:04;25.16;41.41
65291;SHT30;51893;59.754;10.110;2023-06-22T11:37:32;25.32;41.87
65291;SHT30;51893;59.754;10.110;2023-06-22T11:40:00;25.36;40.27
65291;SHT30;51893;59.754;10.110;2023-06-22T11:42:34;25.34;40.06
65291;SHT30;51893;59.754;10.110;2023-06-22T11:45:04;25.36;39.77
65291;SHT30;51893;59.754;10.110;2023-06-22T11:47:33;25.45;40.92
65291;SHT30;51893;59.754;10.110;2023-06-22T11:50:01;25.61;40.13
65291;SHT30;51893;59.754;10.110;2023-06-22T11:52:28;25.70;39.26
65291;SHT30;51893;59.754;10.110;2023-06-22T11:54:57;25.88;38.98
65291;SHT30;51893;59.754;10.110;2023-06-22T11:57:27;25.92;38.90
65291;SHT30;51893;59.754;10.110;2023-06-22T11:59:55;25.95;38.47
65291;SHT30;51893;59.754;10.110;2023-06-22T12:02:24;26.02;38.56
65291;SHT30;51893;59.754;10.110;2023-06-22T12:04:51;26.06;37.88
65291;SHT30;51893;59.754;10.110;2023-06-22T12:07:20;26.05;36.58
65291;SHT30;51893;59.754;10.110;2023-06-22T12:09:48;26.04;36.81
65291;SHT30;51893;59.754;10.110;2023-06-22T12:12:16;26.14;36.96
65291;SHT30;51893;59.754;10.110;2023-06-22T12:14:44;26.22;36.89
65291;SHT30;51893;59.754;10.110;2023-06-22T12:17:12;26.30;36.78
65291;SHT30;51893;59.754;10.110;2023-06-22T12:19:40;26.27;36.48
65291;SHT30;51893;59.754;10.110;2023-06-22T12:22:08;26.21;36.05
65291;SHT30;51893;59.754;10.110;2023-06-22T12:24:36;26.22;36.36
65291;SHT30;51893;59.754;10.110;2023-06-22T12:27:04;26.31;36.38
65291;SHT30;51893;59.754;10.110;2023-06-22T12:29:32;26.36;35.74
65291;SHT30;51893;59.754;10.110;2023-06-22T12:32:00;26.39;35.66
65291;SHT30;51893;59.754;10.110;2023-06-22T12:34:29;26.32;35.49
65291;SHT30;51893;59.754;10.110;2023-06-22T12:36:57;26.42;37.29
65291;SHT30;51893;59.754;10.110;2023-06-22T12:39:25;26.51;36.51
65291;SHT30;51893;59.754;10.110;2023-06-22T12:41:53;26.36;36.59
65291;SHT30;51893;59.754;10.110;2023-06-22T12:44:21;26.10;36.67
65291;SHT30;51893;59.754;10.110;2023-06-22T12:46:49;26.13;36.95
65291;SHT30;51893;59.754;10.110;2023-06-22T12:49:16;26.26;34.99
65291;SHT30;51893;59.754;10.110;2023-06-22T12:51:44;26.30;35.47
65291;SHT30;51893;59.754;10.110;2023-06-22T12:54:12;26.42;35.03
65291;SHT30;51893;59.754;10.110;2023-06-22T12:56:40;26.53;35.59
65291;SHT30;51893;59.754;10.110;2023-06-22T12:59:13;26.61;35.56
65291;SHT30;51893;59.754;10.110;2023-06-22T13:01:42;26.67;35.31
65291;SHT30;51893;59.754;10.110;2023-06-22T13:04:12;26.69;34.94
65291;SHT30;51893;59.754;10.110;2023-06-22T13:06:44;26.68;34.20
65291;SHT30;51893;59.754;10.110;2023-06-22T13:09:17;26.62;34.56
65291;SHT30;51893;59.754;10.110;2023-06-22T13:11:48;26.68;34.37
65291;SHT30;51893;59.754;10.110;2023-06-22T13:14:15;26.65;35.10
65291;SHT30;51893;59.754;10.110;2023-06-22T13:16:44;26.65;35.34
65291;SHT30;51893;59.754;10.110;2023-06-22T13:19:12;26.70;35.01
65291;SHT30;51893;59.754;10.110;2023-06-22T13:21:41;26.75;34.55
65291;SHT30;51893;59.754;10.110;2023-06-22T13:24:09;26.79;34.18
65291;SHT30;51893;59.754;10.110;2023-06-22T13:26:40;26.83;34.56
65291;SHT30;51893;59.754;10.110;2023-06-22T13:29:09;26.94;35.01
65291;SHT30;51893;59.754;10.110;2023-06-22T13:31:38;27.29;35.80
65291;SHT30;51893;59.754;10.110;2023-06-22T13:34:05;27.59;35.12
65291;SHT30;51893;59.754;10.110;2023-06-22T13:36:34;27.67;33.76
65291;SHT30;51893;59.754;10.110;2023-06-22T13:39:01;27.54;32.78
65291;SHT30;51893;59.754;10.110;2023-06-22T13:41:29;27.43;32.80
65291;SHT30;51893;59.754;10.110;2023-06-22T13:43:57;27.36;32.46
65291;SHT30;51893;59.754;10.110;2023-06-22T13:46:25;27.52;33.43
65291;SHT30;51893;59.754;10.110;2023-06-22T13:48:53;27.50;32.62
65291;SHT30;51893;59.754;10.110;2023-06-22T13:51:23;27.58;33.38
65291;SHT30;51893;59.754;10.110;2023-06-22T13:53:52;27.66;31.94
65291;SHT30;51893;59.754;10.110;2023-06-22T13:56:22;27.43;31.10
65291;SHT30;51893;59.754;10.110;2023-06-22T13:58:49;27.22;32.37
65291;SHT30;51893;59.754;10.110;2023-06-22T14:01:19;27.42;33.23
65291;SHT30;51893;59.754;10.110;2023-06-22T14:03:47;27.61;32.66
65291;SHT30;51893;59.754;10.110;2023-06-22T14:06:15;27.74;32.49
65291;SHT30;51893;59.754;10.110;2023-06-22T14:08:43;27.85;32.69
65291;SHT30;51893;59.754;10.110;2023-06-22T14:11:11;28.05;32.94
65291;SHT30;51893;59.754;10.110;2023-06-22T14:13:39;28.16;32.63
65291;SHT30;51893;59.754;10.110;2023-06-22T14:16:09;28.09;32.73
65291;SHT30;51893;59.754;10.110;2023-06-22T14:18:38;27.83;33.02
65291;SHT30;51893;59.754;10.110;2023-06-22T14:21:07;27.73;33.81
65291;SHT30;51893;59.754;10.110;2023-06-22T14:23:35;27.74;33.98
65291;SHT30;51893;59.754;10.110;2023-06-22T14:26:05;27.78;33.34
65291;SHT30;51893;59.754;10.110;2023-06-22T14:28:35;27.64;32.76
65291;SHT30;51893;59.754;10.110;2023-06-22T14:31:03;27.51;33.10
65291;SHT30;51893;59.754;10.110;2023-06-22T14:33:31;27.41;33.09
65291;SHT30;51893;59.754;10.110;2023-06-22T14:35:59;27.35;33.46
65291;SHT30;51893;59.754;10.110;2023-06-22T14:38:27;27.39;33.17
65291;SHT30;51893;59.754;10.110;2023-06-22T14:40:55;27.58;33.40
65291;SHT30;51893;59.754;10.110;2023-06-22T14:43:44;27.67;33.16
65291;SHT30;51893;59.754;10.110;2023-06-22T14:46:18;27.76;33.28
65291;SHT30;51893;59.754;10.110;2023-06-22T14:48:48;27.80;33.54
65291;SHT30;51893;59.754;10.110;2023-06-22T14:51:16;27.77;33.13
65291;SHT30;51893;59.754;10.110;2023-06-22T14:53:45;27.67;32.45
65291;SHT30;51893;59.754;10.110;2023-06-22T14:56:16;27.58;32.71
65291;SHT30;51893;59.754;10.110;2023-06-22T14:58:44;27.52;32.89
65291;SHT30;51893;59.754;10.110;2023-06-22T15:01:15;27.53;33.22
65291;SHT30;51893;59.754;10.110;2023-06-22T15:03:44;27.61;33.04
65291;SHT30;51893;59.754;10.110;2023-06-22T15:06:13;27.59;32.63
65291;SHT30;51893;59.754;10.110;2023-06-22T15:08:41;27.53;32.81
65291;SHT30;51893;59.754;10.110;2023-06-22T15:11:09;27.50;32.28
65291;SHT30;51893;59.754;10.110;2023-06-22T15:13:40;27.40;32.18
65291;SHT30;51893;59.754;10.110;2023-06-22T15:16:09;27.28;32.25
65291;SHT30;51893;59.754;10.110;2023-06-22T15:18:38;27.23;32.92
65291;SHT30;51893;59.754;10.110;2023-06-22T15:21:08;27.30;33.10
65291;SHT30;51893;59.754;10.110;2023-06-22T15:23:38;27.34;32.84
65291;SHT30;51893;59.754;10.110;2023-06-22T15:26:05;27.35;32.92
65291;SHT30;51893;59.754;10.110;2023-06-22T15:28:34;27.35;32.59
65291;SHT30;51893;59.754;10.110;2023-06-22T15:31:05;27.36;32.35
65291;SHT30;51893;59.754;10.110;2023-06-22T15:33:33;27.30;32.67
65291;SHT30;51893;59.754;10.110;2023-06-22T15:36:01;27.30;32.37